Shabbona, Illinois
Current Conditions -  °F | °C
As of 12:35 AM on Monday 24 Nov 2014 (Local Time) from KRPJ Reporting Station
Moderate Rain Moderate Rain  
Wind Chill: 45°   Ceiling: 400
Heat Index: 45°   Visibility: 0.75mi
Dew Point: 45°   Wind: 3mph
Humidity: 100%   Direction: 250°WSW
Pressure: 29.1"   Gusts: NA
Location:  41.77°N, 88.88°W
Report Text: KRPJ 240635Z AUTO 25003KT 3/4SM RA OVC004 07/07 A2910 RMK AO2 LTG DSNT SW T00700070
Loading
Personal Weather Stations






























Interactive Weather Map New forecast layout! Learn more

10-Day Weather Forecast

Advertisements
Track Severe Weather on mobile